createdAt,value
2019-03-26T00:00:31.084Z,7.84
2019-03-26T00:01:31.092Z,7.81
2019-03-26T00:02:31.033Z,7.74
2019-03-26T00:03:31.114Z,7.84
2019-03-26T00:04:30.962Z,7.72
2019-03-26T00:05:31.015Z,7.78
2019-03-26T00:06:30.923Z,7.82
2019-03-26T00:07:30.923Z,7.79
2019-03-26T00:08:30.852Z,7.82
2019-03-26T00:09:30.945Z,7.78
2019-03-26T00:10:30.794Z,7.85
2019-03-26T00:11:30.842Z,7.79
2019-03-26T00:12:30.743Z,7.92
2019-03-26T00:13:30.751Z,7.78
2019-03-26T00:14:30.681Z,7.81
2019-03-26T00:15:30.661Z,7.77
2019-03-26T00:16:30.621Z,7.79
2019-03-26T00:17:30.685Z,7.79
2019-03-26T00:18:30.574Z,7.77
2019-03-26T00:19:30.558Z,7.69
2019-03-26T00:20:30.591Z,7.74
2019-03-26T00:21:30.495Z,7.78
2019-03-26T00:22:30.501Z,7.77
2019-03-26T00:23:30.426Z,7.72
2019-03-26T00:24:30.423Z,7.78
2019-03-26T00:25:30.374Z,7.75
2019-03-26T00:26:30.423Z,7.74
2019-03-26T00:27:30.312Z,7.75
2019-03-26T00:28:30.335Z,7.72
2019-03-26T00:29:30.255Z,7.75
2019-03-26T00:30:30.230Z,7.75
2019-03-26T00:31:30.203Z,7.79
2019-03-26T00:32:30.266Z,7.72
2019-03-26T00:33:36.277Z,7.71
2019-03-26T00:34:30.173Z,7.77
2019-03-26T00:35:30.086Z,7.84
2019-03-26T00:36:30.063Z,7.74
2019-03-26T00:37:30.090Z,7.75
2019-03-26T00:38:30.048Z,7.72
2019-03-26T00:39:29.992Z,7.69
2019-03-26T00:40:29.941Z,7.74
2019-03-26T00:41:29.914Z,7.71
2019-03-26T00:42:29.893Z,7.78
2019-03-26T00:43:29.923Z,7.66
2019-03-26T00:44:29.832Z,7.63
2019-03-26T00:45:29.892Z,7.69
2019-03-26T00:46:29.772Z,7.72
2019-03-26T00:47:29.770Z,7.53
2019-03-26T00:48:29.742Z,7.67
2019-03-26T00:49:29.690Z,7.60
2019-03-26T00:50:29.763Z,7.62
2019-03-26T00:51:29.631Z,7.67
2019-03-26T00:52:29.602Z,7.62
2019-03-26T00:53:29.572Z,7.63
2019-03-26T00:54:29.583Z,7.63
2019-03-26T00:55:29.510Z,7.63
2019-03-26T00:56:29.591Z,7.69
2019-03-26T00:57:29.466Z,7.69
2019-03-26T00:58:29.440Z,7.82
2019-03-26T00:59:29.400Z,7.78
2019-03-26T01:00:29.424Z,7.77
2019-03-26T01:01:29.352Z,7.74
2019-03-26T01:02:29.432Z,7.72
2019-03-26T01:03:29.294Z,7.78
2019-03-26T01:04:32.940Z,7.77
2019-03-26T01:05:29.240Z,7.71
2019-03-26T01:06:29.240Z,7.75
2019-03-26T01:07:29.182Z,7.77
2019-03-26T01:08:29.261Z,7.75
2019-03-26T01:09:29.172Z,7.71
2019-03-26T01:10:29.092Z,7.71
2019-03-26T01:11:29.172Z,7.77
2019-03-26T01:12:31.200Z,7.75
2019-03-26T01:13:29.081Z,7.75
2019-03-26T01:14:28.981Z,7.66
2019-03-26T01:15:28.957Z,7.74
2019-03-26T01:16:28.999Z,7.63
2019-03-26T01:17:28.891Z,7.67
2019-03-26T01:18:28.922Z,7.74
2019-03-26T01:19:28.841Z,7.72
2019-03-26T01:20:28.810Z,7.66
2019-03-26T01:21:28.783Z,7.53
2019-03-26T01:22:28.831Z,7.55
2019-03-26T01:23:28.732Z,7.55
2019-03-26T01:24:28.758Z,7.59
2019-03-26T01:25:28.670Z,7.50
2019-03-26T01:26:28.629Z,7.60
2019-03-26T01:27:28.662Z,7.52
2019-03-26T01:28:28.593Z,7.52
2019-03-26T01:29:28.571Z,7.52
2019-03-26T01:30:28.521Z,7.53
2019-03-26T01:31:28.502Z,7.55
2019-03-26T01:32:28.469Z,7.56
2019-03-26T01:33:28.491Z,7.53
2019-03-26T01:34:28.411Z,7.58
2019-03-26T01:35:28.404Z,7.66
2019-03-26T01:36:28.353Z,7.53
2019-03-26T01:37:28.321Z,7.63
2019-03-26T01:38:28.321Z,7.66
2019-03-26T01:39:28.274Z,7.60
2019-03-26T01:40:28.415Z,7.69
2019-03-26T01:41:28.211Z,7.59
2019-03-26T01:42:28.242Z,7.59
2019-03-26T01:43:28.162Z,7.63
2019-03-26T01:44:28.153Z,7.59
2019-03-26T01:45:28.121Z,7.69
2019-03-26T01:46:28.162Z,7.58
2019-03-26T01:47:28.051Z,7.60
2019-03-26T01:48:28.029Z,7.71
2019-03-26T01:49:27.985Z,7.60
2019-03-26T01:50:28.002Z,7.66
2019-03-26T01:51:27.928Z,7.59
2019-03-26T01:52:28.002Z,7.53
2019-03-26T01:53:27.875Z,7.72
2019-03-26T01:54:27.844Z,7.67
2019-03-26T01:55:27.912Z,7.71
2019-03-26T01:56:27.781Z,7.74
2019-03-26T01:57:27.821Z,7.71
2019-03-26T01:58:27.730Z,7.66
2019-03-26T01:59:27.701Z,7.69
2019-03-26T02:00:27.675Z,7.56
2019-03-26T02:01:27.752Z,7.55
2019-03-26T02:02:27.621Z,7.60
2019-03-26T02:03:27.681Z,7.60
2019-03-26T02:04:27.551Z,7.53
2019-03-26T02:05:27.532Z,7.58
2019-03-26T02:06:27.592Z,7.53
2019-03-26T02:07:27.471Z,7.53
2019-03-26T02:08:27.502Z,7.56
2019-03-26T02:09:27.413Z,7.50
2019-03-26T02:10:27.390Z,7.53
2019-03-26T02:11:27.363Z,7.50
2019-03-26T02:12:27.412Z,7.58
2019-03-26T02:13:27.301Z,7.58
2019-03-26T02:14:27.320Z,7.60
2019-03-26T02:15:27.254Z,7.53
2019-03-26T02:16:27.210Z,7.55
2019-03-26T02:17:27.230Z,7.56
2019-03-26T02:18:27.164Z,7.53
2019-03-26T02:19:27.147Z,7.52
2019-03-26T02:20:27.102Z,7.58
2019-03-26T02:21:27.072Z,7.50
2019-03-26T02:22:27.044Z,7.58
2019-03-26T02:23:27.063Z,7.58
2019-03-26T02:24:27.000Z,7.47
2019-03-26T02:25:26.971Z,7.41
2019-03-26T02:26:26.943Z,7.45
2019-03-26T02:27:26.922Z,7.42
2019-03-26T02:28:26.870Z,7.40
2019-03-26T02:29:26.903Z,7.42
2019-03-26T02:30:26.831Z,7.45
2019-03-26T02:31:26.812Z,7.38
2019-03-26T02:32:26.761Z,7.42
2019-03-26T02:33:26.825Z,7.49
2019-03-26T02:34:26.713Z,7.53
2019-03-26T02:35:26.752Z,7.45
2019-03-26T02:36:26.664Z,7.41
2019-03-26T02:37:26.653Z,7.47
2019-03-26T02:38:26.652Z,7.47
2019-03-26T02:39:26.559Z,7.42
2019-03-26T02:40:26.563Z,7.45
2019-03-26T02:41:26.502Z,7.45
2019-03-26T02:42:26.575Z,7.41
2019-03-26T02:43:26.454Z,7.47
2019-03-26T02:44:26.412Z,7.35
2019-03-26T02:45:26.493Z,7.47
2019-03-26T02:46:26.353Z,7.47
2019-03-26T02:47:26.411Z,7.45
2019-03-26T02:49:58.164Z,7.41
2019-03-26T02:50:58.078Z,7.44
2019-03-26T02:53:02.088Z,7.44
2019-03-26T02:54:01.975Z,7.35
2019-03-26T02:56:05.982Z,7.45
2019-03-26T02:57:05.883Z,7.42
2019-03-26T02:59:09.893Z,7.37
2019-03-26T03:00:09.791Z,7.35
2019-03-26T03:02:13.801Z,7.34
2019-03-26T03:03:13.711Z,7.34
2019-03-26T03:05:33.799Z,7.31
2019-03-26T03:06:17.695Z,7.38
2019-03-26T03:08:21.624Z,7.38
2019-03-26T03:09:21.522Z,7.31
2019-03-26T03:11:26.451Z,7.31
2019-03-26T03:12:26.365Z,7.35
2019-03-26T03:14:30.373Z,7.35
2019-03-26T03:15:30.325Z,7.32
2019-03-26T03:17:34.222Z,7.37
2019-03-26T03:18:34.173Z,7.37
2019-03-26T03:20:39.163Z,7.32
2019-03-26T03:21:39.029Z,7.34
2019-03-26T03:23:43.933Z,7.31
2019-03-26T03:24:43.844Z,7.24
2019-03-26T03:26:36.794Z,7.40
2019-03-26T03:27:36.683Z,7.40
2019-03-26T03:29:41.636Z,7.37
2019-03-26T03:30:41.530Z,7.38
2019-03-26T03:32:46.453Z,7.40
2019-03-26T03:33:46.353Z,7.34
2019-03-26T03:35:53.037Z,7.27
2019-03-26T03:36:51.186Z,7.27
2019-03-26T03:38:55.194Z,7.23
2019-03-26T03:39:55.098Z,7.26
2019-03-26T03:41:59.106Z,7.22
2019-03-26T03:42:59.006Z,7.23
2019-03-26T03:45:03.017Z,7.29
2019-03-26T03:46:02.911Z,7.13
2019-03-26T03:48:06.923Z,7.16
2019-03-26T03:49:06.823Z,7.16
2019-03-26T03:51:10.775Z,7.07
2019-03-26T03:52:10.738Z,7.12
2019-03-26T03:54:14.743Z,7.04
2019-03-26T03:55:14.642Z,7.04
2019-03-26T03:57:07.602Z,7.09
2019-03-26T03:58:07.507Z,7.04
2019-03-26T04:00:11.508Z,7.07
2019-03-26T04:01:11.406Z,7.12
2019-03-26T04:03:15.436Z,7.08
2019-03-26T04:04:15.314Z,7.05
2019-03-26T04:06:19.345Z,7.12
2019-03-26T04:07:19.225Z,7.07
2019-03-26T04:09:23.762Z,7.07
2019-03-26T04:10:23.653Z,6.98
2019-03-26T04:12:27.666Z,7.08
2019-03-26T04:13:27.622Z,7.09
2019-03-26T04:15:34.892Z,7.12
2019-03-26T04:16:31.474Z,7.01
2019-03-26T04:18:35.470Z,7.04
2019-03-26T04:19:35.375Z,7.04
2019-03-26T04:21:39.409Z,7.08
2019-03-26T04:22:39.281Z,7.07
2019-03-26T04:24:43.243Z,7.02
2019-03-26T04:25:43.205Z,7.05
2019-03-26T04:27:47.213Z,7.09
2019-03-26T04:28:47.113Z,7.05
2019-03-26T04:30:51.123Z,7.08
2019-03-26T04:31:51.026Z,7.07
2019-03-26T04:32:51.096Z,7.05
2019-03-26T04:33:50.974Z,7.09
2019-03-26T04:34:51.000Z,6.95
2019-03-26T04:35:51.001Z,7.07
2019-03-26T04:36:50.871Z,6.99
2019-03-26T04:37:50.923Z,7.08
2019-03-26T04:38:50.811Z,7.05
2019-03-26T04:39:50.834Z,7.07
2019-03-26T04:40:50.752Z,7.09
2019-03-26T04:41:50.843Z,7.07
2019-03-26T04:42:50.703Z,7.07
2019-03-26T04:43:50.753Z,7.09
2019-03-26T04:44:50.643Z,6.97
2019-03-26T04:45:50.698Z,7.07
2019-03-26T04:46:50.674Z,7.08
2019-03-26T04:47:50.557Z,7.08
2019-03-26T04:48:50.575Z,7.08
2019-03-26T04:49:50.491Z,7.08
2019-03-26T04:50:50.485Z,7.09
2019-03-26T04:51:50.443Z,7.13
2019-03-26T04:52:50.412Z,7.08
2019-03-26T04:53:50.403Z,7.09
2019-03-26T04:54:50.353Z,7.09
2019-03-26T04:55:50.417Z,7.01
2019-03-26T04:56:50.303Z,6.97
2019-03-26T04:57:50.283Z,6.91
2019-03-26T04:58:50.233Z,6.95
2019-03-26T04:59:50.234Z,6.97
2019-03-26T05:00:50.187Z,6.95
2019-03-26T05:01:50.245Z,6.94
2019-03-26T05:02:50.125Z,6.90
2019-03-26T05:03:50.091Z,6.95
2019-03-26T05:04:50.164Z,6.95
2019-03-26T05:05:50.032Z,6.97
2019-03-26T05:06:50.090Z,6.95
2019-03-26T05:07:49.978Z,6.95
2019-03-26T05:08:49.963Z,7.04
2019-03-26T05:09:49.923Z,6.98
2019-03-26T05:10:49.993Z,6.98
2019-03-26T05:11:49.873Z,7.07
2019-03-26T05:12:49.902Z,6.98
2019-03-26T05:13:49.801Z,7.01
2019-03-26T05:14:49.782Z,6.98
2019-03-26T05:15:49.742Z,7.07
2019-03-26T05:16:49.724Z,6.99
2019-03-26T05:17:49.686Z,6.90
2019-03-26T05:18:49.743Z,6.94
2019-03-26T05:19:49.633Z,7.07
2019-03-26T05:20:49.658Z,7.04
2019-03-26T05:21:49.570Z,6.97
2019-03-26T05:22:49.565Z,7.08
2019-03-26T05:23:51.770Z,7.05
2019-03-26T05:24:49.573Z,7.09
2019-03-26T05:25:49.473Z,7.09
2019-03-26T05:26:49.423Z,7.09
2019-03-26T05:27:49.491Z,7.04
2019-03-26T05:28:49.362Z,7.08
2019-03-26T05:29:49.403Z,7.12
2019-03-26T05:30:49.304Z,7.07
2019-03-26T05:31:49.313Z,7.07
2019-03-26T05:32:49.254Z,7.04
2019-03-26T05:33:49.323Z,7.09
2019-03-26T05:34:49.191Z,6.99
2019-03-26T05:35:51.630Z,7.09
2019-03-26T05:36:51.426Z,7.05
2019-03-26T05:37:49.161Z,7.04
2019-03-26T05:38:49.072Z,6.99
2019-03-26T05:39:49.154Z,7.01
2019-03-26T05:40:49.011Z,7.09
2019-03-26T05:41:49.062Z,6.99
2019-03-26T05:42:48.972Z,7.04
2019-03-26T05:43:48.973Z,7.05
2019-03-26T05:44:48.906Z,7.02
2019-03-26T05:45:48.982Z,7.04
2019-03-26T05:46:48.863Z,6.99
2019-03-26T05:47:48.822Z,7.09
2019-03-26T05:48:48.791Z,7.09
2019-03-26T05:49:48.812Z,7.07
2019-03-26T05:50:48.734Z,7.05
2019-03-26T05:51:48.722Z,7.07
2019-03-26T05:52:48.682Z,7.05
2019-03-26T05:53:48.642Z,7.09
2019-03-26T05:54:48.651Z,7.09
2019-03-26T05:55:48.582Z,7.20
2019-03-26T05:56:48.642Z,7.24
2019-03-26T05:57:48.536Z,7.23
2019-03-26T05:58:48.502Z,7.17
2019-03-26T05:59:48.475Z,7.29
2019-03-26T06:00:48.467Z,7.17
2019-03-26T06:01:48.413Z,7.22
2019-03-26T06:02:48.493Z,7.23
2019-03-26T06:03:48.354Z,7.23
2019-03-26T06:04:48.321Z,7.24
2019-03-26T06:05:48.408Z,7.17
2019-03-26T06:06:48.272Z,7.20
2019-03-26T06:07:48.313Z,7.24
2019-03-26T06:08:48.233Z,7.19
2019-03-26T06:09:48.223Z,7.22
2019-03-26T06:10:48.154Z,7.31
2019-03-26T06:11:48.231Z,7.29
2019-03-26T06:12:50.263Z,7.37
2019-03-26T06:13:48.143Z,7.42
2019-03-26T06:14:48.043Z,7.38
2019-03-26T06:15:48.012Z,7.29
2019-03-26T06:16:48.053Z,7.38
2019-03-26T06:17:47.954Z,7.47
2019-03-26T06:18:47.970Z,7.50
2019-03-26T06:19:47.892Z,7.34
2019-03-26T06:20:47.983Z,7.38
2019-03-26T06:21:47.854Z,7.42
2019-03-26T06:22:47.894Z,7.40
2019-03-26T06:23:47.782Z,7.41
2019-03-26T06:24:47.804Z,7.41
2019-03-26T06:25:47.724Z,7.41
2019-03-26T06:26:47.692Z,7.42
2019-03-26T06:27:47.662Z,7.42
2019-03-26T06:28:47.721Z,7.55
2019-03-26T06:29:47.625Z,7.56
2019-03-26T06:30:47.643Z,7.52
2019-03-26T06:31:47.554Z,7.52
2019-03-26T06:32:47.528Z,7.53
2019-03-26T06:33:47.556Z,7.55
2019-03-26T06:34:47.461Z,7.58
2019-03-26T06:35:47.461Z,7.52
2019-03-26T06:36:47.423Z,7.50
2019-03-26T06:37:47.382Z,7.58
2019-03-26T06:38:47.352Z,7.53
2019-03-26T06:39:47.383Z,7.56
2019-03-26T06:40:47.293Z,7.56
2019-03-26T06:41:47.294Z,7.49
2019-03-26T06:42:47.243Z,7.63
2019-03-26T06:43:47.213Z,7.71
2019-03-26T06:44:47.184Z,7.69
2019-03-26T06:45:47.218Z,7.69
2019-03-26T06:46:47.131Z,7.72
2019-03-26T06:47:47.123Z,7.62
2019-03-26T06:48:47.064Z,7.66
2019-03-26T06:49:47.132Z,7.63
2019-03-26T06:50:47.010Z,7.71
2019-03-26T06:51:47.043Z,7.63
2019-03-26T06:52:46.950Z,7.69
2019-03-26T06:53:46.951Z,7.62
2019-03-26T06:54:46.907Z,7.58
2019-03-26T06:55:46.973Z,7.71
2019-03-26T06:56:46.833Z,7.63
2019-03-26T06:57:46.885Z,7.63
2019-03-26T06:58:46.783Z,7.53
2019-03-26T06:59:46.824Z,7.67
2019-03-26T07:00:46.738Z,7.67
2019-03-26T07:01:46.805Z,7.66
2019-03-26T07:02:46.736Z,7.63
2019-03-26T07:03:46.710Z,7.72
2019-03-26T07:04:46.616Z,7.71
2019-03-26T07:05:46.590Z,7.74
2019-03-26T07:06:46.551Z,7.78
2019-03-26T07:07:47.552Z,7.72
2019-03-26T07:08:46.493Z,7.77
2019-03-26T07:09:46.543Z,7.69
2019-03-26T07:10:46.442Z,7.67
2019-03-26T07:11:46.452Z,7.71
2019-03-26T07:12:46.392Z,7.74
2019-03-26T07:13:46.373Z,7.74
2019-03-26T07:14:46.321Z,7.74
2019-03-26T07:15:46.383Z,7.82
2019-03-26T07:16:46.286Z,7.77
2019-03-26T07:17:46.243Z,7.85
2019-03-26T07:18:46.292Z,7.79
2019-03-26T07:19:46.194Z,7.94
2019-03-26T07:20:46.201Z,7.79
2019-03-26T07:21:49.951Z,7.84
2019-03-26T07:22:46.102Z,7.81
2019-03-26T07:23:46.122Z,7.79
2019-03-26T07:24:46.032Z,7.82
2019-03-26T07:25:46.032Z,7.87
2019-03-26T07:26:45.993Z,7.79
2019-03-26T07:27:45.953Z,7.82
2019-03-26T07:28:45.932Z,7.82
2019-03-26T07:29:45.958Z,7.93
2019-03-26T07:30:45.872Z,7.93
2019-03-26T07:31:45.876Z,7.89
2019-03-26T07:32:45.831Z,7.99
2019-03-26T07:33:45.780Z,7.90
2019-03-26T07:34:45.781Z,7.90
2019-03-26T07:35:45.722Z,7.84
2019-03-26T07:36:45.791Z,7.85
2019-03-26T07:37:45.954Z,7.99
2019-03-26T07:38:45.637Z,7.94
2019-03-26T07:39:45.613Z,8.08
2019-03-26T07:40:45.635Z,8.00
2019-03-26T07:41:45.554Z,7.99
2019-03-26T07:42:45.627Z,8.08
2019-03-26T07:43:45.492Z,8.12
2019-03-26T07:44:45.693Z,8.12
2019-03-26T07:45:45.440Z,8.15
2019-03-26T07:46:45.441Z,8.26
2019-03-26T07:47:45.382Z,8.26
2019-03-26T07:48:45.474Z,8.30
2019-03-26T07:49:45.322Z,8.22
2019-03-26T07:50:45.372Z,8.29
2019-03-26T07:51:45.265Z,8.12
2019-03-26T07:52:45.281Z,8.18
2019-03-26T07:53:45.213Z,8.26
2019-03-26T07:54:45.291Z,8.15
2019-03-26T07:55:45.151Z,8.21
2019-03-26T07:56:45.206Z,8.26
2019-03-26T07:57:45.093Z,8.36
2019-03-26T07:58:45.117Z,8.35
2019-03-26T07:59:45.042Z,8.50
2019-03-26T08:00:45.122Z,8.53
2019-03-26T08:01:44.983Z,8.63
2019-03-26T08:02:45.032Z,8.72
2019-03-26T08:03:44.938Z,8.81
2019-03-26T08:04:44.945Z,8.88
2019-03-26T08:05:44.882Z,8.88
2019-03-26T08:06:44.844Z,8.97
2019-03-26T08:07:57.461Z,8.97
2019-03-26T08:08:44.791Z,9.04
2019-03-26T08:09:44.773Z,9.10
2019-03-26T08:10:44.733Z,8.96
2019-03-26T08:11:44.784Z,8.96
2019-03-26T08:12:44.689Z,8.99
2019-03-26T08:13:44.717Z,9.06
2019-03-26T08:14:44.623Z,9.18
2019-03-26T08:15:44.629Z,9.28
2019-03-26T08:16:44.580Z,9.30
2019-03-26T08:17:45.477Z,9.27
2019-03-26T08:18:44.524Z,9.32
2019-03-26T08:19:44.533Z,9.28
2019-03-26T08:20:44.452Z,9.27
2019-03-26T08:21:44.453Z,9.32
2019-03-26T08:22:44.392Z,9.34
2019-03-26T08:23:44.373Z,9.34
2019-03-26T08:24:44.367Z,9.35
2019-03-26T08:25:44.330Z,9.31
2019-03-26T08:26:44.373Z,9.31
2019-03-26T08:27:44.273Z,9.39
2019-03-26T08:28:44.233Z,9.31
2019-03-26T08:29:44.201Z,9.25
2019-03-26T08:30:44.304Z,9.23
2019-03-26T08:31:44.144Z,9.21
2019-03-26T08:32:44.203Z,9.23
2019-03-26T08:33:44.093Z,9.28
2019-03-26T08:34:46.638Z,9.31
2019-03-26T08:35:44.046Z,9.30
2019-03-26T08:36:44.121Z,9.27
2019-03-26T08:37:44.004Z,9.09
2019-03-26T08:38:44.071Z,9.20
2019-03-26T08:39:43.933Z,9.18
2019-03-26T08:40:43.983Z,9.30
2019-03-26T08:41:43.873Z,9.30
2019-03-26T08:42:43.965Z,9.42
2019-03-26T08:43:43.822Z,9.50
2019-03-26T08:44:43.928Z,9.58
2019-03-26T08:45:43.915Z,9.56
2019-03-26T08:46:46.270Z,9.71
2019-03-26T08:47:43.832Z,9.76
2019-03-26T08:48:43.681Z,9.91
2019-03-26T08:49:43.742Z,9.94
2019-03-26T08:50:43.764Z,10.06
2019-03-26T08:51:43.605Z,9.88
2019-03-26T08:52:50.872Z,9.89
2019-03-26T08:54:47.601Z,10.04
2019-03-26T08:55:47.506Z,10.00
2019-03-26T08:57:51.512Z,10.14
2019-03-26T08:58:51.424Z,10.09
2019-03-26T09:00:55.610Z,10.01
2019-03-26T09:01:55.583Z,10.07
2019-03-26T09:03:59.633Z,10.03
2019-03-26T09:04:59.421Z,9.83
2019-03-26T09:06:52.580Z,9.70
2019-03-26T09:07:52.396Z,9.60
2019-03-26T09:09:56.391Z,9.49
2019-03-26T09:10:56.300Z,9.48
2019-03-26T09:13:00.242Z,9.60
2019-03-26T09:14:00.205Z,9.56
2019-03-26T09:16:04.236Z,9.70
2019-03-26T09:17:04.133Z,9.68
2019-03-26T09:19:08.132Z,9.73
2019-03-26T09:20:08.041Z,9.64
2019-03-26T09:22:12.053Z,9.45
2019-03-26T09:23:12.497Z,9.48
2019-03-26T09:25:15.954Z,9.25
2019-03-26T09:26:15.862Z,9.23
2019-03-26T09:28:19.876Z,9.20
2019-03-26T09:29:19.831Z,9.16
2019-03-26T09:31:23.782Z,9.12
2019-03-26T09:32:23.684Z,9.15
2019-03-26T09:34:27.650Z,8.90
2019-03-26T09:35:27.600Z,8.81
2019-03-26T09:37:31.641Z,8.72
2019-03-26T09:38:38.847Z,8.76
2019-03-26T09:40:35.522Z,8.68
2019-03-26T09:41:35.495Z,8.79
2019-03-26T09:43:39.432Z,8.78
2019-03-26T09:44:39.339Z,8.81
2019-03-26T09:46:32.282Z,8.73
2019-03-26T09:47:32.184Z,8.76
2019-03-26T09:49:36.220Z,8.84
2019-03-26T09:50:36.104Z,8.79
2019-03-26T09:52:40.110Z,8.76
2019-03-26T09:53:40.022Z,8.54
2019-03-26T09:55:44.020Z,8.60
2019-03-26T09:56:43.926Z,8.72
2019-03-26T09:58:47.957Z,8.72
2019-03-26T09:59:47.833Z,8.81
2019-03-26T10:01:51.813Z,8.71
2019-03-26T10:02:51.765Z,8.81
2019-03-26T10:04:55.762Z,8.83
2019-03-26T10:05:55.663Z,8.79
2019-03-26T10:07:59.673Z,8.90
2019-03-26T10:08:59.574Z,8.86
2019-03-26T10:11:03.584Z,8.97
2019-03-26T10:12:03.483Z,8.97
2019-03-26T10:14:07.500Z,9.06
2019-03-26T10:15:07.401Z,9.04
2019-03-26T10:17:00.357Z,9.15
2019-03-26T10:18:00.322Z,9.23
2019-03-26T10:20:04.260Z,9.35
2019-03-26T10:21:04.160Z,9.39
2019-03-26T10:23:08.193Z,9.52
2019-03-26T10:24:08.083Z,9.61
2019-03-26T10:26:12.092Z,10.19
2019-03-26T10:27:11.993Z,10.42
2019-03-26T10:29:29.600Z,11.02
2019-03-26T10:30:15.893Z,11.50
2019-03-26T10:32:19.912Z,12.04
2019-03-26T10:33:19.812Z,12.11
2019-03-26T10:35:23.822Z,11.93
2019-03-26T10:36:23.722Z,11.97
2019-03-26T10:38:27.731Z,11.97
2019-03-26T10:39:27.632Z,12.01
2019-03-26T10:41:31.650Z,11.71
2019-03-26T10:42:31.554Z,11.90
2019-03-26T10:44:35.564Z,12.51
2019-03-26T10:45:35.473Z,12.63
2019-03-26T10:47:39.425Z,12.95
2019-03-26T10:48:39.441Z,13.04
2019-03-26T10:50:43.334Z,13.11
2019-03-26T10:51:43.290Z,13.04
2019-03-26T10:53:47.302Z,13.79
2019-03-26T10:54:47.201Z,13.91
2019-03-26T10:56:40.277Z,13.58
2019-03-26T10:57:40.051Z,13.52
2019-03-26T10:59:44.062Z,13.49
2019-03-26T11:00:43.963Z,13.56
2019-03-26T11:02:47.981Z,13.69
2019-03-26T11:03:47.894Z,13.98
2019-03-26T11:05:51.891Z,14.53
2019-03-26T11:06:51.872Z,14.93
2019-03-26T11:08:55.813Z,14.90
2019-03-26T11:09:55.727Z,14.68
2019-03-26T11:11:59.711Z,14.57
2019-03-26T11:12:59.623Z,14.60
2019-03-26T11:15:03.733Z,14.87
2019-03-26T11:16:03.661Z,15.05
2019-03-26T11:18:07.643Z,14.46
2019-03-26T11:19:07.551Z,14.16
2019-03-26T11:21:11.652Z,13.40
2019-03-26T11:22:11.550Z,12.95
2019-03-26T11:24:15.569Z,12.67
2019-03-26T11:25:15.471Z,12.46
2019-03-26T11:27:08.455Z,11.74
2019-03-26T11:28:08.324Z,11.65
2019-03-26T11:30:12.790Z,11.59
2019-03-26T11:31:12.810Z,11.54
2019-03-26T11:33:16.762Z,11.34
2019-03-26T11:34:16.663Z,11.28
2019-03-26T11:36:20.774Z,11.31
2019-03-26T11:37:20.682Z,11.21
2019-03-26T11:39:32.585Z,11.16
2019-03-26T11:40:24.693Z,11.06
2019-03-26T11:42:28.802Z,10.88
2019-03-26T11:43:28.701Z,10.74
2019-03-26T11:45:32.823Z,10.70
2019-03-26T11:46:32.734Z,10.62
2019-03-26T11:48:36.830Z,10.56
2019-03-26T11:49:36.732Z,10.59
2019-03-26T11:51:40.853Z,10.60
2019-03-26T11:52:40.758Z,10.70
2019-03-26T11:54:44.862Z,10.66
2019-03-26T11:55:44.762Z,10.66
2019-03-26T11:57:48.880Z,10.66
2019-03-26T11:58:48.780Z,10.60
2019-03-26T12:00:52.903Z,10.68
2019-03-26T12:01:52.862Z,10.58
2019-03-26T12:03:56.935Z,10.51
2019-03-26T12:04:56.814Z,10.43
2019-03-26T12:06:49.862Z,10.53
2019-03-26T12:07:49.761Z,10.59
2019-03-26T12:09:53.894Z,10.77
2019-03-26T12:10:53.780Z,10.73
2019-03-26T12:12:57.844Z,10.84
2019-03-26T12:13:57.791Z,10.94
2019-03-26T12:16:01.910Z,10.94
2019-03-26T12:17:01.812Z,10.92
2019-03-26T12:19:05.862Z,11.07
2019-03-26T12:20:05.830Z,11.09
2019-03-26T12:22:09.954Z,11.29
2019-03-26T12:23:09.830Z,11.35
2019-03-26T12:25:13.963Z,11.44
2019-03-26T12:26:13.861Z,11.36
2019-03-26T12:28:18.071Z,11.57
2019-03-26T12:29:17.872Z,11.62
2019-03-26T12:31:11.344Z,11.64
2019-03-26T12:32:11.022Z,11.65
2019-03-26T12:34:15.139Z,11.71
2019-03-26T12:35:15.046Z,11.80
2019-03-26T12:37:08.216Z,11.87
2019-03-26T12:38:08.002Z,11.89
2019-03-26T12:40:12.219Z,12.06
2019-03-26T12:41:12.011Z,12.23
2019-03-26T12:43:16.241Z,12.39
2019-03-26T12:44:16.030Z,12.45
2019-03-26T12:46:20.070Z,12.64
2019-03-26T12:47:20.039Z,12.52
2019-03-26T12:49:24.362Z,12.37
2019-03-26T12:50:24.060Z,12.33
2019-03-26T12:52:28.285Z,12.12
2019-03-26T12:53:28.244Z,12.05
2019-03-26T12:55:32.303Z,12.02
2019-03-26T12:56:32.089Z,11.85
2019-03-26T12:58:36.803Z,11.53
2019-03-26T12:59:36.099Z,11.38
2019-03-26T13:01:40.153Z,11.19
2019-03-26T13:02:40.294Z,11.19
2019-03-26T13:04:44.174Z,11.13
2019-03-26T13:05:44.299Z,11.06
2019-03-26T13:07:48.349Z,10.94
2019-03-26T13:08:48.149Z,10.83
2019-03-26T13:10:54.071Z,10.80
2019-03-26T13:11:52.160Z,10.66
2019-03-26T13:13:56.379Z,10.65
2019-03-26T13:14:59.248Z,10.56
2019-03-26T13:16:49.330Z,10.53
2019-03-26T13:17:49.129Z,10.51
2019-03-26T13:19:53.347Z,10.58
2019-03-26T13:20:53.139Z,10.51
2019-03-26T13:22:57.369Z,10.58
2019-03-26T13:23:57.158Z,10.58
2019-03-26T13:26:01.380Z,10.65
2019-03-26T13:27:01.179Z,10.68
2019-03-26T13:29:05.203Z,10.73
2019-03-26T13:30:05.287Z,10.77
2019-03-26T13:32:09.140Z,10.65
2019-03-26T13:33:09.101Z,10.62
2019-03-26T13:35:13.321Z,10.60
2019-03-26T13:36:13.132Z,10.62
2019-03-26T13:38:17.230Z,10.60
2019-03-26T13:39:17.033Z,10.53
2019-03-26T13:41:21.038Z,10.51
2019-03-26T13:42:20.942Z,10.56
2019-03-26T13:44:24.959Z,10.66
2019-03-26T13:45:24.861Z,10.71
2019-03-26T13:47:28.962Z,10.92
2019-03-26T13:48:28.930Z,10.96
2019-03-26T13:50:32.993Z,10.98
2019-03-26T13:51:32.892Z,10.98
2019-03-26T13:53:37.190Z,10.94
2019-03-26T13:54:36.826Z,10.99
2019-03-26T13:56:29.750Z,11.06
2019-03-26T13:57:29.659Z,11.10
2019-03-26T13:59:33.709Z,11.27
2019-03-26T14:00:33.664Z,11.11
2019-03-26T14:02:37.781Z,11.17
2019-03-26T14:03:37.679Z,11.19
2019-03-26T14:05:41.815Z,11.10
2019-03-26T14:06:41.743Z,11.25
2019-03-26T14:08:45.810Z,11.29
2019-03-26T14:09:45.722Z,11.24
2019-03-26T14:11:49.820Z,11.27
2019-03-26T14:12:49.727Z,11.29
2019-03-26T14:14:53.848Z,11.21
2019-03-26T14:15:53.739Z,11.19
2019-03-26T14:17:57.864Z,11.19
2019-03-26T14:18:57.761Z,11.20
2019-03-26T14:21:01.871Z,11.24
2019-03-26T14:22:01.840Z,11.20
2019-03-26T14:24:05.790Z,11.07
2019-03-26T14:25:05.694Z,11.03
2019-03-26T14:26:58.684Z,10.99
2019-03-26T14:27:58.642Z,10.99
2019-03-26T14:30:02.757Z,11.14
2019-03-26T14:31:02.655Z,11.11
2019-03-26T14:33:06.691Z,11.14
2019-03-26T14:34:06.736Z,11.11
2019-03-26T14:36:10.880Z,11.02
2019-03-26T14:37:10.681Z,11.03
2019-03-26T14:39:14.792Z,10.95
2019-03-26T14:40:14.723Z,10.98
2019-03-26T14:42:19.856Z,10.96
2019-03-26T14:43:18.712Z,10.96
2019-03-26T14:45:22.945Z,10.98
2019-03-26T14:46:22.722Z,10.98
2019-03-26T14:48:26.946Z,11.09
2019-03-26T14:49:26.756Z,11.02
2019-03-26T14:51:30.964Z,10.99
2019-03-26T14:52:30.753Z,11.01
2019-03-26T14:54:23.780Z,11.02
2019-03-26T14:55:23.743Z,11.03
2019-03-26T14:57:27.690Z,10.89
2019-03-26T14:58:27.595Z,10.88
2019-03-26T15:00:31.703Z,10.94
2019-03-26T15:01:31.501Z,10.89
2019-03-26T15:03:35.511Z,10.84
2019-03-26T15:04:35.423Z,10.94
2019-03-26T15:06:28.304Z,10.91
2019-03-26T15:07:28.260Z,10.98
2019-03-26T15:09:32.271Z,10.96
2019-03-26T15:10:32.183Z,10.96
2019-03-26T15:12:36.217Z,11.06
2019-03-26T15:13:36.094Z,11.10
2019-03-26T15:15:40.106Z,11.14
2019-03-26T15:16:40.003Z,11.17
2019-03-26T15:18:44.022Z,11.25
2019-03-26T15:19:43.907Z,11.20
2019-03-26T15:21:47.923Z,11.21
2019-03-26T15:22:47.822Z,11.27
2019-03-26T15:24:51.992Z,11.25
2019-03-26T15:25:51.794Z,11.28
2019-03-26T15:27:56.002Z,11.27
2019-03-26T15:28:55.983Z,11.28
2019-03-26T15:31:00.026Z,11.16
2019-03-26T15:31:59.813Z,11.28
2019-03-26T15:34:04.035Z,11.17
2019-03-26T15:35:03.839Z,11.19
2019-03-26T15:36:57.845Z,11.20
2019-03-26T15:37:56.712Z,11.27
2019-03-26T15:40:00.654Z,11.19
2019-03-26T15:41:00.646Z,11.17
2019-03-26T15:43:05.145Z,11.28
2019-03-26T15:44:05.044Z,11.25
2019-03-26T15:46:09.053Z,11.24
2019-03-26T15:47:08.963Z,11.24
2019-03-26T15:49:12.963Z,11.27
2019-03-26T15:50:12.859Z,11.16
2019-03-26T15:52:18.157Z,11.13
2019-03-26T15:53:17.782Z,11.01
2019-03-26T15:55:22.004Z,10.98
2019-03-26T15:56:21.795Z,10.96
2019-03-26T15:58:26.015Z,10.94
2019-03-26T15:59:25.814Z,10.96
2019-03-26T16:01:30.024Z,10.94
2019-03-26T16:02:29.825Z,10.95
2019-03-26T16:04:34.056Z,10.89
2019-03-26T16:05:33.842Z,10.89
2019-03-26T16:07:37.896Z,10.96
2019-03-26T16:08:37.857Z,10.96
2019-03-26T16:10:42.074Z,11.02
2019-03-26T16:11:41.881Z,11.13
2019-03-26T16:13:45.983Z,11.07
2019-03-26T16:14:45.792Z,11.03
2019-03-26T16:16:38.864Z,11.06
2019-03-26T16:17:38.657Z,10.96
2019-03-26T16:19:42.952Z,10.98
2019-03-26T16:20:42.765Z,10.99